createdAt,value
2018-09-26T00:03:23.826Z,14.1
2018-09-26T00:08:53.782Z,14.1
2018-09-26T00:14:25.337Z,14
2018-09-26T00:19:53.299Z,14
2018-09-26T00:25:28.492Z,14
2018-09-26T00:30:52.423Z,13.9
2018-09-26T00:36:22.513Z,13.9
2018-09-26T00:41:51.636Z,13.9
2018-09-26T00:47:21.761Z,13.8
2018-09-26T00:52:51.213Z,13.8
2018-09-26T00:58:21.143Z,13.8
2018-09-26T01:03:51.285Z,13.7
2018-09-26T01:09:20.740Z,13.7
2018-09-26T01:14:54.409Z,13.6
2018-09-26T01:20:24.763Z,13.6
2018-09-26T01:25:54.627Z,13.6
2018-09-26T01:31:24.797Z,13.5
2018-09-26T01:36:48.792Z,13.5
2018-09-26T01:42:19.184Z,13.5
2018-09-26T01:47:47.981Z,13.5
2018-09-26T01:53:17.103Z,13.4
2018-09-26T01:58:51.283Z,13.4
2018-09-26T02:04:21.571Z,13.4
2018-09-26T02:09:45.351Z,13.3
2018-09-26T02:15:19.550Z,13.3
2018-09-26T02:20:48.801Z,13.3
2018-09-26T02:26:18.609Z,13.3
2018-09-26T02:31:43.724Z,13.2
2018-09-26T02:37:12.995Z,13.2
2018-09-26T02:42:42.038Z,13.2
2018-09-26T02:48:11.123Z,13.2
2018-09-26T02:53:41.036Z,13.1
2018-09-26T02:59:10.308Z,13.1
2018-09-26T03:04:46.659Z,13.1
2018-09-26T03:10:10.108Z,13.1
2018-09-26T03:15:39.645Z,13
2018-09-26T03:21:08.181Z,13
2018-09-26T03:26:38.260Z,13
2018-09-26T03:32:07.649Z,13
2018-09-26T03:37:36.727Z,13
2018-09-26T03:43:06.209Z,12.9
2018-09-26T03:48:40.469Z,12.9
2018-09-26T03:54:04.518Z,12.9
2018-09-26T03:59:33.715Z,12.9
2018-09-26T04:05:03.979Z,12.9
2018-09-26T04:10:32.798Z,12.8
2018-09-26T05:27:29.658Z,14.9
2018-09-26T05:32:59.633Z,15
2018-09-26T05:38:28.877Z,15.1
2018-09-26T05:44:05.410Z,15.2
2018-09-26T05:49:29.456Z,15.2
2018-09-26T05:54:59.217Z,15.2
2018-09-26T06:00:33.248Z,15.3
2018-09-26T06:05:57.219Z,15.2
2018-09-26T06:11:26.607Z,15.2
2018-09-26T06:16:56.896Z,15.2
2018-09-26T06:22:26.165Z,15.2
2018-09-26T06:28:00.415Z,15.1
2018-09-26T06:33:25.537Z,15.1
2018-09-26T06:38:54.906Z,15
2018-09-26T06:44:24.268Z,15
2018-09-26T06:49:53.287Z,14.9
2018-09-26T06:55:23.530Z,14.9
2018-09-26T07:00:52.735Z,14.8
2018-09-26T07:06:28.246Z,14.8
2018-09-26T07:11:52.208Z,14.7
2018-09-26T07:17:22.744Z,14.7
2018-09-26T07:22:56.802Z,14.7
2018-09-26T07:28:26.110Z,14.7
2018-09-26T07:33:51.274Z,14.7
2018-09-26T07:39:20.532Z,14.8
2018-09-26T07:44:49.472Z,14.8
2018-09-26T07:50:20.491Z,14.9
2018-09-26T07:55:50.229Z,15
2018-09-26T08:01:20.235Z,15.1
2018-09-26T08:06:49.467Z,15.2
2018-09-26T08:12:18.959Z,15.2
2018-09-26T08:17:47.999Z,15.3
2018-09-26T08:23:18.325Z,15.4
2018-09-26T08:28:53.883Z,15.5
2018-09-26T08:34:24.532Z,15.6
2018-09-26T08:39:53.259Z,15.7
2018-09-26T08:45:18.865Z,15.7
2018-09-26T08:50:47.874Z,15.8
2018-09-26T08:56:17.603Z,15.8
2018-09-26T09:01:47.849Z,15.9
2018-09-26T09:07:16.887Z,16
2018-09-26T09:12:46.197Z,16.1
2018-09-26T09:18:15.856Z,16.2
2018-09-26T09:23:45.953Z,16.2
2018-09-26T09:29:16.304Z,16.3
2018-09-26T09:34:51.881Z,16.4
2018-09-26T10:18:45.431Z,17.2
2018-09-26T10:24:15.762Z,17.4
2018-09-26T10:29:50.251Z,17.6
2018-09-26T11:13:52.447Z,18.6
2018-09-26T11:19:18.765Z,18.7
2018-09-26T11:30:24.551Z,18.9
2018-09-26T11:35:50.059Z,18.9
2018-09-26T11:41:19.615Z,19
2018-09-26T11:46:50.340Z,19.1
2018-09-26T11:52:20.246Z,19.1
2018-09-26T11:57:54.834Z,19.2
2018-09-26T12:03:19.970Z,19.2
2018-09-26T12:08:50.516Z,19.2
2018-09-26T12:19:50.674Z,19.3
2018-09-26T12:25:20.387Z,19.3
2018-09-26T12:30:50.119Z,19.3
2018-09-26T12:36:20.126Z,19.3
2018-09-26T12:41:49.533Z,19.3
2018-09-26T12:47:24.807Z,19.2
2018-09-26T12:52:50.102Z,19.2
2018-09-26T12:58:20.042Z,19.2
2018-09-26T13:47:50.419Z,18.9
2018-09-26T13:53:19.997Z,18.9
2018-09-26T13:58:49.501Z,18.9
2018-09-26T14:04:20.795Z,18.8
2018-09-26T14:09:50.790Z,18.8
2018-09-26T14:15:20.509Z,18.7
2018-09-26T14:20:50.170Z,18.7
2018-09-26T14:26:25.250Z,18.6
2018-09-26T14:31:50.426Z,18.6
2018-09-26T14:37:21.201Z,18.5
2018-09-26T14:42:56.069Z,18.5
2018-09-26T14:48:21.324Z,18.4
2018-09-26T14:53:52.364Z,18.3
2018-09-26T14:59:26.637Z,18.3
2018-09-26T15:04:56.532Z,18.2
2018-09-26T15:10:26.078Z,18.2
2018-09-26T15:15:50.439Z,18.1
2018-09-26T15:21:21.656Z,18.1
2018-09-26T15:26:55.740Z,18
2018-09-26T15:32:21.805Z,18
2018-09-26T15:37:50.866Z,17.9
2018-09-26T15:43:21.000Z,17.9
2018-09-26T15:48:51.698Z,17.9
2018-09-26T15:54:26.784Z,17.8
2018-09-26T15:59:51.530Z,17.8
2018-09-26T16:05:22.396Z,17.7
2018-09-26T16:10:51.422Z,17.7
2018-09-26T16:16:21.183Z,17.6
2018-09-26T16:27:20.781Z,17.5
2018-09-26T16:32:50.323Z,17.5
2018-09-26T16:38:26.524Z,17.5
2018-09-26T16:43:51.744Z,17.4
2018-09-26T16:49:20.930Z,17.4
2018-09-26T16:54:50.445Z,17.3
2018-09-26T17:00:19.620Z,17.3
2018-09-26T17:05:54.041Z,17.3
2018-09-26T17:11:19.553Z,17.2
2018-09-26T17:16:53.977Z,17.2
2018-09-26T17:22:18.459Z,17.1
2018-09-26T17:27:49.214Z,17.1
2018-09-26T17:33:19.367Z,17.1
2018-09-26T17:38:48.949Z,17
2018-09-26T17:44:25.831Z,17
2018-09-26T17:49:54.878Z,17
2018-09-26T17:55:25.067Z,16.9
2018-09-26T18:00:49.738Z,16.9
2018-09-26T18:06:19.807Z,16.9
2018-09-26T18:11:49.210Z,16.8
2018-09-26T18:17:19.759Z,16.8
2018-09-26T18:22:50.034Z,16.8
2018-09-26T18:28:20.443Z,16.7
2018-09-26T18:33:50.005Z,16.7
2018-09-26T18:39:19.229Z,16.7
2018-09-26T18:44:55.416Z,16.6
2018-09-26T18:50:17.986Z,16.6
2018-09-26T18:55:48.339Z,16.6
2018-09-26T19:01:17.723Z,16.5
2018-09-26T19:06:48.481Z,16.5
2018-09-26T19:12:18.540Z,16.5
2018-09-26T19:17:52.804Z,16.5
2018-09-26T19:23:18.336Z,16.4
2018-09-26T19:28:47.570Z,16.4
2018-09-26T19:34:17.290Z,16.4
2018-09-26T19:39:47.343Z,16.4
2018-09-26T19:45:16.908Z,16.3
2018-09-26T19:50:51.457Z,16.3
2018-09-26T19:56:16.336Z,16.3
2018-09-26T20:01:50.926Z,16.2
2018-09-26T20:12:45.698Z,16.2
2018-09-26T20:18:14.690Z,16.2
2018-09-26T20:23:44.173Z,16.1
2018-09-26T20:29:13.643Z,16.1
2018-09-26T20:34:43.669Z,16.1
2018-09-26T20:40:14.017Z,16.1
2018-09-26T20:45:49.304Z,16
2018-09-26T20:51:18.641Z,16
2018-09-26T20:56:42.929Z,16
2018-09-26T21:02:12.366Z,16
2018-09-26T21:07:42.521Z,16
2018-09-26T21:13:17.189Z,15.9
2018-09-26T21:18:47.205Z,15.9
2018-09-26T21:24:16.639Z,15.9
2018-09-26T21:29:40.821Z,15.9
2018-09-26T21:35:11.446Z,15.9
2018-09-26T21:40:41.416Z,15.8
2018-09-26T21:46:10.739Z,15.8
2018-09-26T21:51:45.275Z,15.8
2018-09-26T21:57:10.567Z,15.8
2018-09-26T22:08:09.111Z,15.7
2018-09-26T22:13:38.465Z,15.7
2018-09-26T22:19:08.416Z,15.7
2018-09-26T22:24:38.996Z,15.7
2018-09-26T22:30:08.560Z,15.7
2018-09-26T22:35:38.291Z,15.7
2018-09-26T22:41:08.497Z,15.6
2018-09-26T22:46:43.040Z,15.6
2018-09-26T22:52:07.273Z,15.6
2018-09-26T22:57:36.586Z,15.6
2018-09-26T23:08:37.042Z,15.6
2018-09-26T23:19:38.314Z,15.5
2018-09-26T23:25:06.674Z,15.5
2018-09-26T23:30:42.448Z,15.5
2018-09-26T23:36:07.601Z,15.5
2018-09-26T23:41:37.628Z,15.5
2018-09-26T23:47:12.670Z,15.5
2018-09-26T23:52:42.986Z,15.4
2018-09-26T23:58:07.281Z,15.4
